createdAt,value
2022-08-12T00:01:15.772Z,2.10
2022-08-12T00:04:05.891Z,2.00
2022-08-12T00:06:53.951Z,2.03
2022-08-12T00:09:40.055Z,1.90
2022-08-12T00:12:26.693Z,1.73
2022-08-12T00:15:12.668Z,1.90
2022-08-12T00:18:02.635Z,2.00
2022-08-12T00:20:49.283Z,1.70
2022-08-12T00:23:35.302Z,1.80
2022-08-12T00:26:24.372Z,1.90
2022-08-12T00:29:13.292Z,2.10
2022-08-12T00:32:01.055Z,1.93
2022-08-12T00:34:52.593Z,1.60
2022-08-12T00:37:40.875Z,2.10
2022-08-12T00:40:31.713Z,1.70
2022-08-12T00:43:00.981Z,1.93
2022-08-12T00:45:51.163Z,2.20
2022-08-12T00:48:20.833Z,2.30
2022-08-12T00:50:55.806Z,1.87
2022-08-12T00:53:24.667Z,2.00
2022-08-12T00:55:57.511Z,1.83
2022-08-12T00:58:32.706Z,1.90
2022-08-12T01:01:05.909Z,1.90
2022-08-12T01:03:56.207Z,1.70
2022-08-12T01:06:53.931Z,1.90
2022-08-12T01:09:41.907Z,2.10
2022-08-12T01:12:12.933Z,2.00
2022-08-12T01:14:43.379Z,2.23
2022-08-12T01:17:11.889Z,2.10
2022-08-12T01:19:41.553Z,2.03
2022-08-12T01:22:25.823Z,2.00
2022-08-12T01:25:19.280Z,1.93
2022-08-12T01:27:52.145Z,1.80
2022-08-12T01:30:22.083Z,1.80
2022-08-12T01:32:53.479Z,1.90
2022-08-12T01:35:24.513Z,1.87
2022-08-12T01:37:58.936Z,2.20
2022-08-12T01:40:37.254Z,1.87
2022-08-12T01:43:09.620Z,2.10
2022-08-12T01:45:47.031Z,1.80
2022-08-12T01:48:27.500Z,2.10
2022-08-12T01:51:06.458Z,1.63
2022-08-12T01:54:04.416Z,2.23
2022-08-12T01:56:49.052Z,2.20
2022-08-12T01:59:43.319Z,1.90
2022-08-12T02:02:20.393Z,2.20
2022-08-12T02:05:35.485Z,2.10
2022-08-12T02:08:45.635Z,2.30
2022-08-12T02:11:23.938Z,2.53
2022-08-12T02:14:43.241Z,2.47
2022-08-12T02:18:00.147Z,2.23
2022-08-12T02:20:51.810Z,2.70
2022-08-12T02:23:27.902Z,2.23
2022-08-12T02:26:02.361Z,2.50
2022-08-12T02:28:31.981Z,2.00
2022-08-12T02:31:08.866Z,2.20
2022-08-12T02:33:38.883Z,2.10
2022-08-12T02:36:08.651Z,2.10
2022-08-12T02:38:37.746Z,2.20
2022-08-12T02:41:10.897Z,2.10
2022-08-12T02:43:47.125Z,2.13
2022-08-12T02:46:24.914Z,2.50
2022-08-12T02:49:00.719Z,2.20
2022-08-12T02:51:34.385Z,2.37
2022-08-12T02:54:07.315Z,2.33
2022-08-12T02:56:40.516Z,3.00
2022-08-12T02:59:12.169Z,2.53
2022-08-12T03:01:49.728Z,2.37
2022-08-12T03:04:27.429Z,2.30
2022-08-12T03:07:10.483Z,2.20
2022-08-12T03:10:04.480Z,2.60
2022-08-12T03:12:42.806Z,2.40
2022-08-12T03:15:22.946Z,2.40
2022-08-12T03:18:25.486Z,2.20
2022-08-12T03:20:50.329Z,2.50
2022-08-12T03:23:29.695Z,2.10
2022-08-12T03:26:02.436Z,2.37
2022-08-12T03:28:53.928Z,2.67
2022-08-12T03:31:25.887Z,2.70
2022-08-12T03:34:03.094Z,2.60
2022-08-12T03:36:35.221Z,2.40
2022-08-12T03:39:35.475Z,2.43
2022-08-12T03:42:25.662Z,2.60
2022-08-12T03:45:51.724Z,2.80
2022-08-12T03:48:39.671Z,2.87
2022-08-12T03:51:29.299Z,2.80
2022-08-12T03:54:16.149Z,2.97
2022-08-12T03:57:02.221Z,2.87
2022-08-12T03:59:48.744Z,3.30
2022-08-12T04:02:18.181Z,2.70
2022-08-12T04:04:47.284Z,2.70
2022-08-12T04:07:19.771Z,2.70
2022-08-12T04:09:48.444Z,2.40
2022-08-12T04:12:34.431Z,2.70
2022-08-12T04:15:04.651Z,2.70
2022-08-12T04:17:34.943Z,2.63
2022-08-12T04:20:03.719Z,2.90
2022-08-12T04:22:34.602Z,2.67
2022-08-12T04:25:04.481Z,2.87
2022-08-12T04:27:35.328Z,2.67
2022-08-12T04:30:29.243Z,2.77
2022-08-12T04:32:54.607Z,2.83
2022-08-12T04:35:22.983Z,2.67
2022-08-12T04:37:59.747Z,2.70
2022-08-12T04:40:33.276Z,2.90
2022-08-12T04:43:02.430Z,3.00
2022-08-12T04:45:33.026Z,2.57
2022-08-12T04:48:02.904Z,2.83
2022-08-12T04:50:34.687Z,2.70
2022-08-12T04:53:08.949Z,3.10
2022-08-12T04:55:40.229Z,2.73
2022-08-12T04:58:10.256Z,2.83
2022-08-12T05:00:40.041Z,3.30
2022-08-12T05:03:09.235Z,2.77
2022-08-12T05:05:41.156Z,2.90
2022-08-12T05:08:15.807Z,2.77
2022-08-12T05:10:46.283Z,3.30
2022-08-12T05:13:20.249Z,3.10
2022-08-12T05:16:04.200Z,3.63
2022-08-12T05:18:35.393Z,3.87
2022-08-12T05:21:10.073Z,3.10
2022-08-12T05:23:42.885Z,3.70
2022-08-12T05:26:11.909Z,3.50
2022-08-12T05:28:41.192Z,4.37
2022-08-12T05:31:11.186Z,3.80
2022-08-12T05:33:40.789Z,4.13
2022-08-12T05:36:13.861Z,4.60
2022-08-12T05:38:57.697Z,10.17
2022-08-12T05:41:29.063Z,4.07
2022-08-12T05:44:01.168Z,3.97
2022-08-12T05:46:32.058Z,4.33
2022-08-12T05:49:01.553Z,4.17
2022-08-12T05:51:41.291Z,4.37
2022-08-12T05:54:12.500Z,3.97
2022-08-12T05:56:41.933Z,3.97
2022-08-12T05:59:12.458Z,3.60
2022-08-12T06:02:10.842Z,3.80
2022-08-12T06:04:33.164Z,3.80
2022-08-12T06:07:02.627Z,3.63
2022-08-12T06:09:52.347Z,3.47
2022-08-12T06:12:23.291Z,3.80
2022-08-12T06:14:51.647Z,4.77
2022-08-12T06:17:19.966Z,4.13
2022-08-12T06:20:26.973Z,3.20
2022-08-12T06:22:37.351Z,3.40
2022-08-12T06:25:09.115Z,3.40
2022-08-12T06:28:05.824Z,3.67
2022-08-12T06:30:39.159Z,3.13
2022-08-12T06:33:55.247Z,3.07
2022-08-12T06:35:59.053Z,2.87
2022-08-12T06:38:30.651Z,2.80
2022-08-12T06:41:20.272Z,2.73
2022-08-12T06:44:05.613Z,3.03
2022-08-12T06:46:38.644Z,3.30
2022-08-12T06:49:08.612Z,3.00
2022-08-12T06:51:36.921Z,3.20
2022-08-12T06:54:05.271Z,3.30
2022-08-12T06:59:24.892Z,3.90
2022-08-12T07:01:54.989Z,3.13
2022-08-12T07:04:36.201Z,3.00
2022-08-12T07:07:07.090Z,2.90
2022-08-12T07:10:06.558Z,3.27
2022-08-12T07:12:28.008Z,2.53
2022-08-12T07:14:59.461Z,2.80
2022-08-12T07:17:35.833Z,3.47
2022-08-12T07:20:06.797Z,1.90
2022-08-12T07:22:35.492Z,2.23
2022-08-12T07:25:22.319Z,2.17
2022-08-12T07:27:56.151Z,2.30
2022-08-12T07:30:25.282Z,2.37
2022-08-12T07:32:57.471Z,2.43
2022-08-12T07:35:31.459Z,2.20
2022-08-12T07:38:02.654Z,2.63
2022-08-12T07:40:31.551Z,2.33
2022-08-12T07:43:01.608Z,2.57
2022-08-12T07:45:30.585Z,7.37
2022-08-12T07:47:59.426Z,2.47
2022-08-12T07:50:28.065Z,2.23
2022-08-12T07:52:56.408Z,2.13
2022-08-12T07:55:25.017Z,2.33
2022-08-12T07:57:58.609Z,2.50
2022-08-12T08:00:31.398Z,2.03
2022-08-12T08:03:00.226Z,2.30
2022-08-12T08:05:35.705Z,2.10
2022-08-12T08:08:13.697Z,2.53
2022-08-12T08:10:42.554Z,1.80
2022-08-12T08:13:11.843Z,1.63
2022-08-12T08:16:02.380Z,1.90
2022-08-12T08:18:31.340Z,1.90
2022-08-12T08:21:00.064Z,1.90
2022-08-12T08:23:55.840Z,1.80
2022-08-12T08:26:27.010Z,2.43
2022-08-12T08:28:55.968Z,1.90
2022-08-12T08:31:25.809Z,3.00
2022-08-12T08:34:09.614Z,2.00
2022-08-12T08:36:44.859Z,1.90
2022-08-12T08:39:17.745Z,1.97
2022-08-12T08:42:14.254Z,2.00
2022-08-12T08:44:49.800Z,1.97
2022-08-12T08:47:28.198Z,2.07
2022-08-12T08:50:00.996Z,2.27
2022-08-12T08:52:39.316Z,2.00
2022-08-12T08:55:11.280Z,2.40
2022-08-12T08:57:44.108Z,2.20
2022-08-12T09:00:18.332Z,2.07
2022-08-12T09:02:59.323Z,1.93
2022-08-12T09:05:43.112Z,2.10
2022-08-12T09:08:23.085Z,1.53
2022-08-12T09:14:11.388Z,1.57
2022-08-12T09:16:37.903Z,1.90
2022-08-12T09:19:27.292Z,1.93
2022-08-12T09:21:57.271Z,1.80
2022-08-12T09:24:30.742Z,3.10
2022-08-12T09:27:00.743Z,1.90
2022-08-12T09:30:10.663Z,1.60
2022-08-12T09:32:56.635Z,1.60
2022-08-12T09:35:18.420Z,1.73
2022-08-12T09:37:57.866Z,1.83
2022-08-12T09:40:58.084Z,1.60
2022-08-12T09:43:35.377Z,1.77
2022-08-12T09:46:20.332Z,1.70
2022-08-12T09:48:56.795Z,1.70
2022-08-12T09:51:37.418Z,2.00
2022-08-12T09:54:33.562Z,1.73
2022-08-12T09:57:03.928Z,2.00
2022-08-12T10:00:16.138Z,1.50
2022-08-12T10:02:58.715Z,2.20
2022-08-12T10:06:27.004Z,1.50
2022-08-12T10:08:22.729Z,1.40
2022-08-12T10:11:09.507Z,1.57
2022-08-12T10:13:52.678Z,1.60
2022-08-12T10:16:23.299Z,1.50
2022-08-12T10:18:54.483Z,1.77
2022-08-12T10:21:35.810Z,2.50
2022-08-12T10:24:10.957Z,1.30
2022-08-12T10:26:59.516Z,1.60
2022-08-12T10:30:37.004Z,1.50
2022-08-12T10:32:56.119Z,1.13
2022-08-12T10:35:20.183Z,1.40
2022-08-12T10:38:34.150Z,1.50
2022-08-12T10:40:59.476Z,1.30
2022-08-12T10:43:54.215Z,1.47
2022-08-12T10:46:30.450Z,1.13
2022-08-12T10:49:06.712Z,1.50
2022-08-12T10:52:32.459Z,1.40
2022-08-12T10:54:43.433Z,1.60
2022-08-12T10:57:18.405Z,1.30
2022-08-12T11:00:33.903Z,1.30
2022-08-12T11:04:18.134Z,1.20
2022-08-12T11:07:03.543Z,1.00
2022-08-12T11:08:43.181Z,0.70
2022-08-12T11:11:17.947Z,1.00
2022-08-12T11:14:47.871Z,1.00
2022-08-12T11:17:34.317Z,0.80
2022-08-12T11:19:46.773Z,0.70
2022-08-12T11:22:18.230Z,0.80
2022-08-12T11:24:53.823Z,0.80
2022-08-12T11:27:23.769Z,0.90
2022-08-12T11:30:01.738Z,1.10
2022-08-12T11:32:38.863Z,6.87
2022-08-12T11:35:11.645Z,0.87
2022-08-12T11:37:59.088Z,0.87
2022-08-12T11:40:29.379Z,1.10
2022-08-12T11:43:19.019Z,1.27
2022-08-12T11:45:53.341Z,1.00
2022-08-12T11:48:27.061Z,0.70
2022-08-12T11:50:57.000Z,0.80
2022-08-12T11:53:59.221Z,0.70
2022-08-12T11:56:13.941Z,0.70
2022-08-12T12:01:58.803Z,0.90
2022-08-12T12:04:29.048Z,0.70
2022-08-12T12:07:06.786Z,0.63
2022-08-12T12:09:51.863Z,0.80
2022-08-12T12:12:25.232Z,0.70
2022-08-12T12:14:54.820Z,0.90
2022-08-12T12:17:26.466Z,1.20
2022-08-12T12:20:10.016Z,0.70
2022-08-12T12:22:45.243Z,0.80
2022-08-12T12:25:14.531Z,0.80
2022-08-12T12:28:04.646Z,0.60
2022-08-12T12:30:35.107Z,1.00
2022-08-12T12:33:06.412Z,1.80
2022-08-12T12:36:16.556Z,0.80
2022-08-12T12:38:25.568Z,1.00
2022-08-12T12:40:54.913Z,2.13
2022-08-12T12:43:28.726Z,0.80
2022-08-12T12:46:11.296Z,2.00
2022-08-12T12:48:44.268Z,0.73
2022-08-12T12:51:48.117Z,0.70
2022-08-12T12:54:09.930Z,5.00
2022-08-12T12:56:42.281Z,0.90
2022-08-12T12:59:55.203Z,1.20
2022-08-12T13:02:08.114Z,1.97
2022-08-12T13:04:38.647Z,0.87
2022-08-12T13:07:07.875Z,0.90
2022-08-12T13:09:36.993Z,0.93
2022-08-12T13:12:10.657Z,1.30
2022-08-12T13:14:39.572Z,1.17
2022-08-12T13:17:11.218Z,0.90
2022-08-12T13:19:49.904Z,1.00
2022-08-12T13:22:19.994Z,0.93
2022-08-12T13:24:54.805Z,1.03
2022-08-12T13:27:35.348Z,2.07
2022-08-12T13:30:12.989Z,1.07
2022-08-12T13:32:57.178Z,1.10
2022-08-12T13:35:33.339Z,1.00
2022-08-12T13:38:26.546Z,1.17
2022-08-12T13:41:02.881Z,1.03
2022-08-12T13:43:40.278Z,1.13
2022-08-12T13:46:11.900Z,1.70
2022-08-12T13:48:45.222Z,1.07
2022-08-12T13:51:24.170Z,1.20
2022-08-12T13:53:59.260Z,1.37
2022-08-12T13:56:35.182Z,1.70
2022-08-12T13:59:08.653Z,1.33
2022-08-12T14:01:40.421Z,1.23
2022-08-12T14:04:11.433Z,1.03
2022-08-12T14:06:43.433Z,1.17
2022-08-12T14:09:17.680Z,1.17
2022-08-12T14:11:59.076Z,1.13
2022-08-12T14:14:31.333Z,1.13
2022-08-12T14:17:05.606Z,1.20
2022-08-12T14:19:35.946Z,1.23
2022-08-12T14:22:10.377Z,1.13
2022-08-12T14:24:41.101Z,1.20
2022-08-12T14:27:11.366Z,1.10
2022-08-12T14:30:06.165Z,1.30
2022-08-12T14:32:34.944Z,1.30
2022-08-12T14:35:09.694Z,1.40
2022-08-12T14:37:56.899Z,1.57
2022-08-12T14:40:29.107Z,2.23
2022-08-12T14:42:59.327Z,1.50
2022-08-12T14:45:44.980Z,1.40
2022-08-12T14:48:24.498Z,1.53
2022-08-12T14:52:10.296Z,1.20
2022-08-12T14:55:24.688Z,1.40
2022-08-12T14:57:01.332Z,1.17
2022-08-12T14:59:56.501Z,1.00
2022-08-12T15:02:26.495Z,1.00
2022-08-12T15:04:58.866Z,1.30
2022-08-12T15:07:33.785Z,1.20
2022-08-12T15:10:31.816Z,0.90
2022-08-12T15:13:07.170Z,1.40
2022-08-12T15:15:43.843Z,1.47
2022-08-12T15:18:20.994Z,1.10
2022-08-12T15:20:51.369Z,1.40
2022-08-12T15:23:21.982Z,1.10
2022-08-12T15:25:59.685Z,1.50
2022-08-12T15:28:32.273Z,1.10
2022-08-12T15:31:02.271Z,1.20
2022-08-12T15:33:45.114Z,1.20
2022-08-12T15:36:19.200Z,1.80
2022-08-12T15:38:48.145Z,1.60
2022-08-12T15:41:22.170Z,1.67
2022-08-12T15:44:17.073Z,1.10
2022-08-12T15:46:41.354Z,1.80
2022-08-12T15:49:16.723Z,1.10
2022-08-12T15:51:58.132Z,1.23
2022-08-12T15:54:34.512Z,1.00
2022-08-12T15:57:10.590Z,1.63
2022-08-12T16:00:00.232Z,1.20
2022-08-12T16:02:50.114Z,1.23
2022-08-12T16:06:12.195Z,1.30
2022-08-12T16:08:18.379Z,2.40
2022-08-12T16:10:53.018Z,1.43
2022-08-12T16:13:32.476Z,4.13
2022-08-12T16:16:12.308Z,1.20
2022-08-12T16:18:58.606Z,1.20
2022-08-12T16:21:52.127Z,1.50
2022-08-12T16:24:18.543Z,1.03
2022-08-12T16:26:51.309Z,1.30
2022-08-12T16:29:38.596Z,1.30
2022-08-12T16:32:21.070Z,1.10
2022-08-12T16:34:55.919Z,1.23
2022-08-12T16:37:26.523Z,1.30
2022-08-12T16:40:06.002Z,1.53
2022-08-12T16:42:39.375Z,1.20
2022-08-12T16:45:14.174Z,1.60
2022-08-12T16:47:58.659Z,1.20
2022-08-12T16:50:30.757Z,1.10
2022-08-12T16:53:02.471Z,1.20
2022-08-12T16:55:38.230Z,1.30
2022-08-12T16:58:27.917Z,1.10
2022-08-12T17:01:02.139Z,1.40
2022-08-12T17:03:35.244Z,1.63
2022-08-12T17:06:09.013Z,2.60
2022-08-12T17:08:39.176Z,1.20
2022-08-12T17:11:17.875Z,1.30
2022-08-12T17:13:53.598Z,1.37
2022-08-12T17:16:24.342Z,1.47
2022-08-12T17:19:03.264Z,1.20
2022-08-12T17:21:41.240Z,1.47
2022-08-12T17:24:30.647Z,1.50
2022-08-12T17:27:09.478Z,1.63
2022-08-12T17:30:00.857Z,3.53
2022-08-12T17:32:35.799Z,1.50
2022-08-12T17:35:30.151Z,1.40
2022-08-12T17:38:11.837Z,1.40
2022-08-12T17:40:42.424Z,1.40
2022-08-12T17:43:57.756Z,1.30
2022-08-12T17:46:02.878Z,1.53
2022-08-12T17:48:38.235Z,1.50
2022-08-12T17:51:16.065Z,1.43
2022-08-12T17:54:11.030Z,1.40
2022-08-12T17:56:38.060Z,1.53
2022-08-12T17:59:12.676Z,1.53
2022-08-12T18:01:44.087Z,1.70
2022-08-12T18:04:23.221Z,1.77
2022-08-12T18:07:08.317Z,1.77
2022-08-12T18:09:41.044Z,1.57
2022-08-12T18:12:35.533Z,1.67
2022-08-12T18:15:08.528Z,1.70
2022-08-12T18:17:43.057Z,1.63
2022-08-12T18:20:18.410Z,1.50
2022-08-12T18:22:55.805Z,1.80
2022-08-12T18:26:14.168Z,1.50
2022-08-12T18:28:40.455Z,1.67
2022-08-12T18:31:13.279Z,1.57
2022-08-12T18:33:46.017Z,2.00
2022-08-12T18:36:22.279Z,1.70
2022-08-12T18:38:53.076Z,2.00
2022-08-12T18:41:33.714Z,1.90
2022-08-12T18:44:08.157Z,1.60
2022-08-12T18:46:54.107Z,1.87
2022-08-12T18:49:31.981Z,1.73
2022-08-12T18:52:11.545Z,1.50
2022-08-12T18:54:49.391Z,1.73
2022-08-12T18:58:05.805Z,2.00
2022-08-12T19:00:21.294Z,1.77
2022-08-12T19:02:53.955Z,1.60
2022-08-12T19:05:53.501Z,1.80
2022-08-12T19:08:16.324Z,1.83
2022-08-12T19:10:50.432Z,2.10
2022-08-12T19:13:39.862Z,1.93
2022-08-12T19:16:12.346Z,1.63
2022-08-12T19:18:44.977Z,1.50
2022-08-12T19:21:16.866Z,1.83
2022-08-12T19:24:12.391Z,1.70
2022-08-12T19:26:42.422Z,1.67
2022-08-12T19:29:12.029Z,1.70
2022-08-12T19:31:57.276Z,1.73
2022-08-12T19:37:26.626Z,1.97
2022-08-12T19:40:07.769Z,1.93
2022-08-12T19:42:44.400Z,1.70
2022-08-12T19:45:15.818Z,1.80
2022-08-12T19:47:46.553Z,1.90
2022-08-12T19:50:19.987Z,1.80
2022-08-12T19:52:53.058Z,2.13
2022-08-12T19:55:27.228Z,2.10
2022-08-12T19:58:02.710Z,2.47
2022-08-12T20:00:38.340Z,2.40
2022-08-12T20:03:08.566Z,1.70
2022-08-12T20:06:05.171Z,1.80
2022-08-12T20:08:37.467Z,1.93
2022-08-12T20:12:13.651Z,1.80
2022-08-12T20:14:01.100Z,2.00
2022-08-12T20:16:52.198Z,1.70
2022-08-12T20:19:24.548Z,1.83
2022-08-12T20:22:23.398Z,1.77
2022-08-12T20:24:55.094Z,1.87
2022-08-12T20:28:02.646Z,2.20
2022-08-12T20:30:18.088Z,2.10
2022-08-12T20:32:55.346Z,1.97
2022-08-12T20:36:06.195Z,1.80
2022-08-12T20:38:26.134Z,2.10
2022-08-12T20:40:55.726Z,2.10
2022-08-12T20:43:28.366Z,1.77
2022-08-12T20:46:00.796Z,2.23
2022-08-12T20:48:29.817Z,2.03
2022-08-12T20:51:04.305Z,1.83
2022-08-12T20:53:53.940Z,1.90
2022-08-12T20:56:30.388Z,2.10
2022-08-12T20:59:05.392Z,2.17
2022-08-12T21:01:46.781Z,1.83
2022-08-12T21:04:36.546Z,1.67
2022-08-12T21:07:08.971Z,1.70
2022-08-12T21:09:44.338Z,1.80
2022-08-12T21:12:27.384Z,1.83
2022-08-12T21:15:24.453Z,1.70
2022-08-12T21:18:11.569Z,1.83
2022-08-12T21:20:52.374Z,1.80
2022-08-12T21:23:22.845Z,2.50
2022-08-12T21:25:52.388Z,1.80
2022-08-12T21:28:30.693Z,1.70
2022-08-12T21:32:34.795Z,1.73
2022-08-12T21:34:08.874Z,1.83
2022-08-12T21:36:43.313Z,2.40
2022-08-12T21:39:21.137Z,3.10
2022-08-12T21:41:53.040Z,2.00
2022-08-12T21:44:24.411Z,1.80
2022-08-12T21:47:20.118Z,1.90
2022-08-12T21:50:02.140Z,2.10
2022-08-12T21:52:34.466Z,2.37
2022-08-12T21:55:08.243Z,2.00
2022-08-12T21:57:51.263Z,1.90
2022-08-12T22:00:32.123Z,1.90
2022-08-12T22:04:01.698Z,1.60
2022-08-12T22:06:31.554Z,2.33
2022-08-12T22:09:16.144Z,2.20
2022-08-12T22:11:56.266Z,2.30
2022-08-12T22:14:29.691Z,2.53
2022-08-12T22:17:01.412Z,2.10
2022-08-12T22:19:35.203Z,1.80
2022-08-12T22:22:05.208Z,1.80
2022-08-12T22:24:34.490Z,1.90
2022-08-12T22:27:08.353Z,1.97
2022-08-12T22:30:16.883Z,2.10
2022-08-12T22:32:49.802Z,1.77
2022-08-12T22:35:56.239Z,1.70
2022-08-12T22:38:23.599Z,1.63
2022-08-12T22:40:54.196Z,1.80
2022-08-12T22:44:00.369Z,1.80
2022-08-12T22:46:52.873Z,1.90
2022-08-12T22:49:36.507Z,1.70
2022-08-12T22:52:18.566Z,1.90
2022-08-12T22:55:03.509Z,1.80
2022-08-12T22:57:49.499Z,1.70
2022-08-12T23:00:27.943Z,1.70
2022-08-12T23:03:02.722Z,1.60
2022-08-12T23:05:57.405Z,2.00
2022-08-12T23:08:29.973Z,2.00
2022-08-12T23:11:00.778Z,1.77
2022-08-12T23:13:55.395Z,1.80
2022-08-12T23:16:31.742Z,1.97
2022-08-12T23:19:10.467Z,1.90
2022-08-12T23:22:06.714Z,1.77
2022-08-12T23:24:54.119Z,1.80
2022-08-12T23:27:50.865Z,1.70
2022-08-12T23:30:32.408Z,1.83
2022-08-12T23:33:04.890Z,1.90
2022-08-12T23:35:53.883Z,1.80
2022-08-12T23:38:33.101Z,1.90
2022-08-12T23:41:05.649Z,1.70
2022-08-12T23:43:39.146Z,1.80
2022-08-12T23:46:19.411Z,1.63
2022-08-12T23:48:51.625Z,1.83
2022-08-12T23:51:24.588Z,1.80
2022-08-12T23:53:56.350Z,1.90
2022-08-12T23:56:32.774Z,1.90
2022-08-12T23:59:01.822Z,1.80
